Time;durP1;ratioP1;P1;durP2;ratioP2;P2;SDS_P1;SDS_P2;PMS_P1;PMS_P2;Temp;Humidity;BMP_temperature;BMP_pressure;BME280_temperature;BME280_humidity;BME280_pressure;Samples;Min_cycle;Max_cycle;Signal;HPM_P1;HPM_P2
2024/04/08 00:02:34;;;;;;;4.60;3.30;;;;;;;15.48;70.31;100141.20;130979;1256;107764;-78
2024/04/08 00:05:41;;;;;;;5.60;3.60;;;;;;;15.50;70.33;100141.42;130990;1264;108793;-78
2024/04/08 00:08:46;;;;;;;4.20;3.40;;;;;;;15.53;70.29;100145.27;130862;1251;107765;-78
2024/04/08 00:11:52;;;;;;;3.80;3.30;;;;;;;15.54;70.41;100136.73;131028;1251;107640;-78
2024/04/08 00:14:57;;;;;;;4.60;3.60;;;;;;;15.55;70.40;100138.91;131018;1252;106751;-78
2024/04/08 00:18:03;;;;;;;4.60;3.60;;;;;;;15.55;70.49;100139.92;130989;1256;107729;-78
2024/04/08 00:21:09;;;;;;;4.50;3.20;;;;;;;15.56;70.63;100143.20;131009;1253;107740;-78
2024/04/08 00:24:14;;;;;;;5.00;3.40;;;;;;;15.59;70.65;100142.73;131022;1256;107819;-78
2024/04/08 00:27:19;;;;;;;3.50;3.00;;;;;;;15.64;70.72;100140.32;130930;1256;107855;-78
2024/04/08 00:30:25;;;;;;;5.20;3.20;;;;;;;15.68;70.85;100135.64;130938;1256;106633;-78
2024/04/08 00:33:31;;;;;;;5.20;3.50;;;;;;;15.71;70.72;100130.75;130852;1258;239119;-78
2024/04/08 00:36:36;;;;;;;5.40;3.50;;;;;;;15.74;70.75;100135.16;130875;1253;107720;-78
2024/04/08 00:39:43;;;;;;;4.60;3.40;;;;;;;15.75;70.79;100136.10;130964;1256;107705;-78
2024/04/08 00:42:52;;;;;;;4.00;3.30;;;;;;;15.75;70.82;100131.04;130938;1256;106779;-78
2024/04/08 00:45:58;;;;;;;5.00;3.50;;;;;;;15.74;70.95;100127.46;130970;1256;108619;-78
2024/04/08 00:49:05;;;;;;;4.20;3.50;;;;;;;15.71;71.02;100127.87;130979;1256;107793;-78
2024/04/08 00:52:12;;;;;;;4.10;3.40;;;;;;;15.69;71.03;100124.98;131030;1254;107763;-78
2024/04/08 00:55:18;;;;;;;5.10;3.50;;;;;;;15.66;71.15;100126.19;130978;1256;106665;-78
2024/04/08 00:58:23;;;;;;;6.50;3.00;;;;;;;15.64;71.14;100122.33;130963;1253;109178;-78
2024/04/08 01:01:29;;;;;;;4.40;3.50;;;;;;;15.65;71.30;100122.60;131056;1256;107646;-78
2024/04/08 01:04:35;;;;;;;4.40;3.40;;;;;;;15.66;71.28;100126.68;131021;1256;107776;-78
2024/04/08 01:07:40;;;;;;;5.10;3.30;;;;;;;15.68;71.38;100129.91;130941;1251;106935;-77
2024/04/08 01:10:46;;;;;;;5.60;3.50;;;;;;;15.69;71.41;100132.14;130956;1256;107655;-78
2024/04/08 01:13:51;;;;;;;6.70;4.50;;;;;;;15.69;71.55;100131.19;130960;1257;106317;-77
2024/04/08 01:16:57;;;;;;;4.60;3.40;;;;;;;15.69;71.56;100130.20;130938;1253;106742;-77
2024/04/08 01:20:02;;;;;;;4.30;3.60;;;;;;;15.67;71.53;100131.25;130985;1256;108406;-78
2024/04/08 01:23:10;;;;;;;4.10;3.30;;;;;;;15.65;71.77;100128.20;130932;1256;107227;-79
2024/04/08 01:26:17;;;;;;;4.70;3.60;;;;;;;15.62;71.83;100131.05;131093;1256;107634;-78
2024/04/08 01:29:22;;;;;;;5.10;3.50;;;;;;;15.57;71.74;100136.66;130978;1256;106698;-78
2024/04/08 01:32:27;;;;;;;4.20;3.40;;;;;;;15.51;72.07;100138.47;130823;1256;107761;-79
2024/04/08 01:35:33;;;;;;;4.30;3.10;;;;;;;15.46;72.13;100134.80;130860;1254;106622;-78
2024/04/08 01:38:39;;;;;;;4.10;3.30;;;;;;;15.44;72.15;100131.48;130964;1253;108034;-78
2024/04/08 01:41:44;;;;;;;4.20;3.40;;;;;;;15.42;72.33;100128.71;130889;1255;106831;-78
2024/04/08 01:44:50;;;;;;;5.00;3.30;;;;;;;15.37;72.46;100132.66;130930;1255;107939;-78
2024/04/08 01:47:55;;;;;;;4.10;3.30;;;;;;;15.29;72.34;100135.38;130954;1254;108398;-78
2024/04/08 01:51:00;;;;;;;4.40;3.50;;;;;;;15.23;72.48;100138.35;130970;1253;106327;-78
2024/04/08 01:54:11;;;;;;;4.00;3.60;;;;;;;15.17;72.82;100144.53;130954;1256;108518;-78
2024/04/08 01:57:17;;;;;;;5.10;3.90;;;;;;;15.11;72.92;100135.75;130940;1253;106541;-78
2024/04/08 02:00:22;;;;;;;5.70;3.70;;;;;;;15.08;73.16;100138.89;130900;1256;108074;-78
2024/04/08 02:03:27;;;;;;;5.20;3.70;;;;;;;15.05;73.11;100137.27;130874;1256;108665;-77
2024/04/08 02:06:33;;;;;;;4.30;3.90;;;;;;;15.03;73.32;100137.09;130919;1256;107211;-78
2024/04/08 02:09:38;;;;;;;4.90;3.70;;;;;;;15.04;73.33;100135.90;130952;1265;107811;-77
2024/04/08 02:12:43;;;;;;;4.80;3.90;;;;;;;15.06;73.66;100135.02;131002;1255;107167;-78
2024/04/08 02:15:48;;;;;;;4.90;3.80;;;;;;;15.06;73.63;100130.52;130966;1256;108707;-78
2024/04/08 02:18:54;;;;;;;7.60;4.20;;;;;;;15.05;73.71;100128.30;131016;1256;108040;-78
2024/04/08 02:21:59;;;;;;;5.70;4.40;;;;;;;15.03;73.61;100126.89;131022;1255;105523;-78
2024/04/08 02:25:04;;;;;;;4.90;3.90;;;;;;;15.01;73.86;100120.89;131026;1257;108656;-78
2024/04/08 02:28:10;;;;;;;6.50;3.90;;;;;;;14.98;73.76;100123.58;131292;1254;106716;-78
2024/04/08 02:31:15;;;;;;;4.40;3.70;;;;;;;14.90;73.77;100121.16;131015;1255;108690;-79
2024/04/08 02:34:20;;;;;;;4.10;3.60;;;;;;;14.86;74.22;100125.19;131042;1256;106890;-79
2024/04/08 02:37:25;;;;;;;5.40;4.20;;;;;;;14.83;73.89;100121.30;130940;1256;108856;-79
2024/04/08 02:40:32;;;;;;;4.60;3.60;;;;;;;14.78;74.09;100118.27;130903;1256;106909;-78
2024/04/08 02:43:37;;;;;;;4.80;3.90;;;;;;;14.74;74.39;100118.06;131165;1256;107042;-79
2024/04/08 02:46:42;;;;;;;5.60;4.00;;;;;;;14.67;74.29;100115.45;131620;1252;107676;-79
2024/04/08 02:49:47;;;;;;;6.20;4.10;;;;;;;14.58;74.61;100115.83;132172;1252;108615;-79
2024/04/08 02:52:52;;;;;;;4.50;3.60;;;;;;;14.48;74.49;100107.51;132277;1256;107698;-79
2024/04/08 02:56:02;;;;;;;5.10;3.10;;;;;;;14.39;74.50;100109.64;130879;1253;107083;-79
2024/04/08 02:59:07;;;;;;;4.80;3.60;;;;;;;14.31;74.61;100101.91;130938;1254;108911;-78
2024/04/08 03:02:12;;;;;;;5.50;4.10;;;;;;;14.25;74.74;100098.55;130945;1256;107699;-79
2024/04/08 03:05:18;;;;;;;6.40;3.40;;;;;;;14.25;75.09;100093.77;130995;1256;106931;-80
2024/04/08 03:08:23;;;;;;;5.00;4.00;;;;;;;14.25;75.13;100096.61;130948;1253;108535;-79
2024/04/08 03:11:28;;;;;;;4.20;3.60;;;;;;;14.21;75.01;100093.45;130890;1256;107941;-79
2024/04/08 03:14:33;;;;;;;4.30;3.70;;;;;;;14.17;74.92;100091.52;130947;1257;108611;-79
2024/04/08 03:17:39;;;;;;;5.50;3.80;;;;;;;14.12;74.96;100097.55;130976;1256;106470;-79
2024/04/08 03:20:53;;;;;;;5.40;3.80;;;;;;;14.06;75.03;100095.76;130988;1256;105838;-79
2024/04/08 03:23:58;;;;;;;4.80;3.80;;;;;;;14.00;75.40;100092.85;130924;1256;108783;-79
2024/04/08 03:27:04;;;;;;;4.70;3.60;;;;;;;13.97;75.37;100089.16;130887;1256;107892;-78
2024/04/08 03:30:10;;;;;;;3.90;3.50;;;;;;;13.94;75.45;100093.89;130901;1253;108064;-79
2024/04/08 03:33:15;;;;;;;6.20;4.30;;;;;;;13.92;75.27;100092.60;130943;1253;107326;-79
2024/04/08 03:36:21;;;;;;;5.60;3.90;;;;;;;13.87;75.52;100088.89;130936;1256;109278;-79
2024/04/08 03:39:26;;;;;;;5.60;4.30;;;;;;;13.84;75.63;100089.26;130949;1256;108016;-79
2024/04/08 03:42:31;;;;;;;6.10;4.40;;;;;;;13.81;75.69;100093.31;130927;1256;106379;-79
2024/04/08 03:45:38;;;;;;;5.30;4.20;;;;;;;13.78;75.81;100094.89;130936;1256;106860;-79
2024/04/08 03:48:43;;;;;;;6.90;4.30;;;;;;;13.72;75.89;100092.55;130818;1259;106749;-79
2024/04/08 03:51:50;;;;;;;4.40;3.70;;;;;;;13.68;75.89;100098.91;130864;1255;107668;-79
2024/04/08 03:54:57;;;;;;;5.10;3.70;;;;;;;13.64;75.95;100094.17;130942;1264;108122;-79
2024/04/08 03:58:03;;;;;;;6.40;4.00;;;;;;;13.61;75.92;100095.39;130873;1256;108532;-79
2024/04/08 04:01:09;;;;;;;5.00;4.10;;;;;;;13.59;76.04;100096.18;130961;1256;107831;-79
2024/04/08 04:04:14;;;;;;;4.80;3.90;;;;;;;13.57;76.11;100097.46;130798;1256;106326;-80
2024/04/08 04:07:20;;;;;;;5.50;4.30;;;;;;;13.54;76.23;100100.16;130994;1256;106831;-78
2024/04/08 04:10:25;;;;;;;6.40;4.30;;;;;;;13.51;76.15;100106.54;130924;1254;106882;-79
2024/04/08 04:13:31;;;;;;;4.80;4.00;;;;;;;13.47;76.08;100101.70;130947;1256;108691;-79
2024/04/08 04:16:36;;;;;;;5.50;3.90;;;;;;;13.42;76.12;100101.15;130978;1256;108740;-79
2024/04/08 04:19:42;;;;;;;4.90;3.50;;;;;;;13.39;76.23;100100.45;130988;1254;108513;-79
2024/04/08 04:22:47;;;;;;;6.60;3.90;;;;;;;13.41;76.35;100098.89;130974;1255;106798;-79
2024/04/08 04:25:55;;;;;;;6.10;4.60;;;;;;;13.41;76.43;100097.89;135150;1252;106850;-79
2024/04/08 04:29:00;;;;;;;6.30;4.60;;;;;;;13.46;76.56;100100.44;135212;1253;108717;-83
2024/04/08 04:32:08;;;;;;;5.30;4.20;;;;;;;13.49;76.77;100098.70;135126;1253;108462;-84
2024/04/08 04:35:14;;;;;;;6.40;4.00;;;;;;;13.54;76.73;100096.05;135147;1252;107710;-83
2024/04/08 04:38:19;;;;;;;5.40;4.20;;;;;;;13.59;76.75;100091.89;134125;1256;108592;-82
2024/04/08 04:41:24;;;;;;;6.50;4.60;;;;;;;13.69;77.04;100090.91;131011;1256;106500;-82
2024/04/08 04:44:30;;;;;;;7.90;4.50;;;;;;;13.80;77.11;100084.52;130945;1256;108712;-82
2024/04/08 04:47:35;;;;;;;7.60;5.00;;;;;;;13.95;77.32;100087.63;131107;1265;107492;-82
2024/04/08 04:50:40;;;;;;;9.50;5.30;;;;;;;14.12;77.46;100086.52;131051;1256;107917;-79
2024/04/08 04:53:45;;;;;;;8.70;5.30;;;;;;;14.33;77.51;100084.16;130884;1256;106841;-79
2024/04/08 04:56:51;;;;;;;7.40;5.90;;;;;;;14.55;77.70;100086.64;130783;1257;107478;-79
2024/04/08 04:59:57;;;;;;;6.60;5.10;;;;;;;14.75;77.86;100083.50;130977;1256;107750;-80
2024/04/08 05:03:03;;;;;;;6.90;4.70;;;;;;;14.91;77.86;100083.55;130949;1258;107250;-80
2024/04/08 05:06:09;;;;;;;7.50;5.00;;;;;;;15.08;77.93;100087.76;130826;1256;107450;-79
2024/04/08 05:09:14;;;;;;;6.10;4.70;;;;;;;15.28;78.04;100092.17;130869;1256;106502;-80
2024/04/08 05:12:19;;;;;;;7.20;5.20;;;;;;;15.49;78.07;100088.68;130896;1256;107566;-81
2024/04/08 05:15:26;;;;;;;5.40;4.70;;;;;;;15.70;77.95;100082.88;130890;1257;108701;-80
2024/04/08 05:18:33;;;;;;;7.80;5.20;;;;;;;15.87;78.00;100086.70;130950;1253;108669;-80
2024/04/08 05:21:38;;;;;;;7.30;5.20;;;;;;;16.04;77.84;100085.88;131480;1255;107554;-81
2024/04/08 05:24:45;;;;;;;5.90;5.00;;;;;;;16.22;77.83;100083.05;130771;1259;108744;-81
2024/04/08 05:27:50;;;;;;;6.00;5.20;;;;;;;16.38;77.71;100084.30;130890;1256;107921;-81
2024/04/08 05:30:55;;;;;;;7.30;4.20;;;;;;;16.51;77.73;100082.45;130907;1265;107335;-80
2024/04/08 05:34:01;;;;;;;7.40;4.70;;;;;;;16.67;77.63;100078.21;130960;1253;108766;-80
2024/04/08 05:37:06;;;;;;;6.40;4.70;;;;;;;16.84;77.58;100080.36;130971;1256;107731;-80
2024/04/08 06:11:31;;;;;;;4.80;4.10;;;;;;;17.72;76.58;100088.05;127618;1286;648675;-78
2024/04/08 06:14:36;;;;;;;5.20;4.40;;;;;;;17.99;76.42;100089.57;129937;1264;180968;-78
2024/04/08 06:17:41;;;;;;;4.80;3.90;;;;;;;18.10;76.56;100090.25;130185;1261;107209;-78
2024/04/08 06:20:54;;;;;;;7.10;4.50;;;;;;;18.16;76.03;100090.55;130154;1264;108639;-78
2024/04/08 06:24:00;;;;;;;5.10;3.80;;;;;;;18.20;76.08;100091.58;130833;1256;107776;-78
2024/04/08 06:27:06;;;;;;;4.40;3.90;;;;;;;18.28;75.91;100096.11;130650;1254;107828;-78
2024/04/08 06:30:12;;;;;;;5.00;3.80;;;;;;;18.36;75.83;100090.59;130664;1254;106966;-78
2024/04/08 06:33:17;;;;;;;4.40;3.50;;;;;;;18.46;75.81;100087.48;130735;1256;107729;-78
2024/04/08 06:36:23;;;;;;;6.40;4.20;;;;;;;18.53;75.49;100090.99;130846;1254;107609;-78
2024/04/08 06:39:28;;;;;;;4.20;3.70;;;;;;;18.60;75.55;100099.18;130699;1254;108773;-78
2024/04/08 06:42:34;;;;;;;4.60;4.10;;;;;;;18.70;75.31;100105.11;130672;1256;108642;-78
2024/04/08 06:45:39;;;;;;;5.00;3.80;;;;;;;18.77;75.07;100103.95;130642;1254;107975;-78
2024/04/08 06:48:44;;;;;;;4.90;3.80;;;;;;;18.85;74.96;100105.91;130655;1257;106319;-78
2024/04/08 06:51:49;;;;;;;4.50;3.90;;;;;;;18.96;74.76;100096.53;130664;1255;106622;-78
2024/04/08 06:54:54;;;;;;;5.40;4.00;;;;;;;19.06;74.59;100096.92;130617;1257;106498;-78
2024/04/08 06:58:00;;;;;;;4.60;3.60;;;;;;;19.17;74.48;100095.21;130678;1254;108022;-78
2024/04/08 07:01:05;;;;;;;5.00;3.50;;;;;;;19.27;74.38;100096.67;130661;1255;106733;-78
2024/04/08 07:04:10;;;;;;;5.80;3.50;;;;;;;19.39;74.15;100096.88;130743;1256;108686;-78
2024/04/08 07:07:16;;;;;;;5.30;3.60;;;;;;;19.50;73.88;100095.66;130729;1257;107701;-79
2024/04/08 07:10:22;;;;;;;5.90;3.60;;;;;;;19.63;73.91;100093.81;130805;1254;107704;-78
2024/04/08 07:13:29;;;;;;;5.70;3.40;;;;;;;19.77;73.35;100095.83;130773;1258;107545;-78
2024/04/08 07:16:35;;;;;;;3.80;3.20;;;;;;;19.97;73.14;100093.71;130739;1258;108642;-78
2024/04/08 07:19:40;;;;;;;5.30;3.50;;;;;;;20.17;72.82;100090.36;130753;1257;108862;-78
2024/04/08 07:22:46;;;;;;;5.30;3.40;;;;;;;20.36;72.44;100082.21;130690;1258;106999;-78
2024/04/08 07:25:51;;;;;;;5.10;3.70;;;;;;;20.53;72.27;100083.67;130686;1259;106920;-78
2024/04/08 07:28:56;;;;;;;4.80;3.30;;;;;;;20.66;71.87;100085.88;130657;1254;108627;-79
2024/04/08 07:32:02;;;;;;;6.20;3.30;;;;;;;20.74;71.25;100083.63;130605;1257;107093;-78
2024/04/08 07:35:07;;;;;;;4.70;3.10;;;;;;;20.79;70.60;100084.73;130670;1258;107988;-78
2024/04/08 07:38:13;;;;;;;5.40;3.30;;;;;;;20.83;70.80;100082.30;130771;1257;107895;-78
2024/04/08 07:41:18;;;;;;;3.20;2.90;;;;;;;20.89;70.91;100087.64;130683;1259;107667;-78
2024/04/08 07:44:24;;;;;;;5.40;3.00;;;;;;;20.91;70.60;100094.08;130728;1260;97823;-78
2024/04/08 07:47:29;;;;;;;4.10;3.00;;;;;;;20.91;70.52;100094.14;130641;1260;108505;-78
2024/04/08 07:50:37;;;;;;;6.50;3.10;;;;;;;20.89;70.41;100091.65;130590;1254;106863;-78
2024/04/08 07:53:43;;;;;;;4.50;3.10;;;;;;;20.85;70.18;100087.70;130620;1259;108355;-78
2024/04/08 07:56:48;;;;;;;6.20;3.00;;;;;;;20.81;70.05;100087.70;130654;1259;107014;-78
2024/04/08 07:59:54;;;;;;;4.00;3.00;;;;;;;20.77;70.04;100087.06;130662;1255;107892;-78
2024/04/08 08:03:01;;;;;;;4.10;3.10;;;;;;;20.73;69.83;100093.27;130601;1260;107852;-78
2024/04/08 08:06:07;;;;;;;6.50;3.10;;;;;;;20.75;69.59;100092.41;130623;1260;108578;-78
2024/04/08 08:09:12;;;;;;;3.70;2.90;;;;;;;20.79;69.48;100079.73;130732;1259;107682;-80
2024/04/08 08:12:18;;;;;;;4.10;2.70;;;;;;;20.85;69.10;100079.89;130925;1260;105891;-79
2024/04/08 08:15:24;;;;;;;4.10;3.30;;;;;;;20.87;68.85;100077.95;130758;1260;107974;-79
2024/04/08 08:18:31;;;;;;;3.30;2.70;;;;;;;20.82;68.65;100069.41;130753;1259;106349;-80
2024/04/08 08:21:36;;;;;;;4.00;2.70;;;;;;;20.86;68.68;100065.89;130674;1257;107565;-79
2024/04/08 08:24:41;;;;;;;5.80;3.30;;;;;;;20.95;68.63;100063.39;130676;1254;107624;-79
2024/04/08 08:27:47;;;;;;;3.60;3.00;;;;;;;21.03;68.68;100061.61;130747;1257;107042;-79
2024/04/08 08:30:52;;;;;;;5.00;3.20;;;;;;;21.10;68.09;100062.09;130751;1258;107692;-79
2024/04/08 08:33:58;;;;;;;5.60;3.10;;;;;;;21.15;68.01;100060.50;130709;1254;106528;-78
2024/04/08 08:37:03;;;;;;;4.90;3.20;;;;;;;21.23;68.02;100057.63;130733;1260;107762;-78
2024/04/08 08:40:10;;;;;;;4.80;3.20;;;;;;;21.33;67.59;100063.38;130758;1260;108506;-81
2024/04/08 08:43:16;;;;;;;3.30;2.90;;;;;;;21.40;67.32;100059.65;130857;1260;107006;-78
2024/04/08 08:46:25;;;;;;;6.70;3.00;;;;;;;21.46;67.03;100058.30;130730;1257;106506;-78
2024/04/08 08:49:31;;;;;;;3.30;2.80;;;;;;;21.55;66.94;100060.23;130687;1254;107604;-78
2024/04/08 08:52:37;;;;;;;4.60;3.10;;;;;;;21.66;67.35;100058.34;130683;1258;108544;-78
2024/04/08 08:55:43;;;;;;;3.70;2.80;;;;;;;21.73;67.00;100060.39;130755;1260;107491;-78
2024/04/08 08:58:53;;;;;;;4.00;3.00;;;;;;;21.82;67.08;100065.16;130945;1260;106829;-78
2024/04/08 09:02:00;;;;;;;3.30;2.90;;;;;;;21.92;66.65;100064.29;130891;1254;108609;-78
2024/04/08 09:05:06;;;;;;;5.10;2.60;;;;;;;22.01;66.37;100067.38;130699;1254;107401;-78
2024/04/08 09:08:11;;;;;;;5.40;2.90;;;;;;;22.07;66.09;100059.28;130678;1254;106625;-78
2024/04/08 09:11:17;;;;;;;4.30;3.00;;;;;;;22.13;65.76;100067.05;130754;1258;106599;-77
2024/04/08 09:14:22;;;;;;;4.80;2.90;;;;;;;22.22;65.24;100063.61;130775;1259;108761;-78
2024/04/08 09:17:27;;;;;;;4.50;2.70;;;;;;;22.32;64.84;100063.14;130738;1270;107023;-77
2024/04/08 09:20:33;;;;;;;4.80;3.00;;;;;;;22.43;64.31;100054.09;130727;1260;108575;-77
2024/04/08 09:23:42;;;;;;;6.10;3.30;;;;;;;22.55;64.31;100047.67;130740;1260;107540;-77
2024/04/08 09:26:47;;;;;;;4.80;3.00;;;;;;;22.66;63.92;100045.86;130668;1260;108570;-77
2024/04/08 09:29:52;;;;;;;3.80;2.50;;;;;;;22.75;63.58;100047.96;130701;1257;107677;-79
2024/04/08 09:32:58;;;;;;;3.00;2.60;;;;;;;22.86;64.11;100053.59;130631;1258;108870;-79
2024/04/08 09:36:03;;;;;;;4.20;2.80;;;;;;;23.01;63.04;100048.19;130488;1257;107647;-78
2024/04/08 09:39:12;;;;;;;3.60;2.70;;;;;;;23.12;62.31;100048.99;130676;1254;107073;-80
2024/04/08 09:42:18;;;;;;;3.60;3.00;;;;;;;23.21;62.22;100039.96;130678;1255;107008;-76
2024/04/08 09:45:24;;;;;;;4.40;2.50;;;;;;;23.24;61.25;100038.73;130746;1260;107907;-76
2024/04/08 09:48:30;;;;;;;3.50;2.90;;;;;;;23.30;61.50;100033.16;130707;1257;106606;-76
2024/04/08 09:51:36;;;;;;;4.20;2.80;;;;;;;23.35;61.38;100031.96;130633;1259;108594;-77
2024/04/08 09:54:41;;;;;;;3.10;2.50;;;;;;;23.41;60.62;100031.41;130783;1257;108477;-77
2024/04/08 09:57:48;;;;;;;3.50;2.80;;;;;;;23.53;60.66;100025.38;130812;1257;107568;-78
2024/04/08 10:00:55;;;;;;;3.90;2.80;;;;;;;23.62;60.19;100019.50;130732;1257;107216;-77
2024/04/08 10:04:03;;;;;;;3.60;2.80;;;;;;;23.69;59.79;100018.75;130780;1256;107079;-77
2024/04/08 10:07:09;;;;;;;5.20;2.80;;;;;;;23.69;59.71;100017.33;130829;1256;106758;-78
2024/04/08 10:10:16;;;;;;;5.90;2.60;;;;;;;23.67;59.71;100020.02;130809;1254;108496;-78
2024/04/08 10:13:21;;;;;;;4.20;2.90;;;;;;;23.63;59.83;100018.70;130742;1256;107859;-77
2024/04/08 10:16:27;;;;;;;4.40;2.70;;;;;;;23.67;59.70;100015.54;130739;1257;106875;-77
2024/04/08 10:19:32;;;;;;;3.40;2.60;;;;;;;23.70;59.53;100017.06;130799;1257;107259;-78
2024/04/08 10:22:39;;;;;;;3.90;2.50;;;;;;;23.72;59.36;100012.27;130822;1255;106604;-79
2024/04/08 10:25:47;;;;;;;3.70;2.60;;;;;;;23.81;59.42;100005.25;130841;1257;107496;-77
2024/04/08 10:28:53;;;;;;;3.40;2.70;;;;;;;23.91;58.93;99996.22;130997;1267;108422;-78
2024/04/08 10:31:58;;;;;;;5.00;2.80;;;;;;;23.97;58.81;100002.23;130800;1259;108483;-77
2024/04/08 10:35:07;;;;;;;4.00;3.00;;;;;;;24.01;58.77;100000.27;130826;1260;107375;-78
2024/04/08 10:38:13;;;;;;;5.10;2.60;;;;;;;24.05;59.04;99994.64;130802;1256;107961;-78
2024/04/08 10:41:20;;;;;;;3.70;2.70;;;;;;;24.11;58.01;99999.95;130782;1257;106629;-78
2024/04/08 10:44:26;;;;;;;5.10;2.40;;;;;;;24.17;58.04;99997.48;130779;1257;108672;-78
2024/04/08 10:47:32;;;;;;;4.90;2.70;;;;;;;24.23;57.72;99994.96;130729;1257;107158;-78
2024/04/08 10:50:38;;;;;;;4.80;2.50;;;;;;;24.27;56.88;99993.27;130830;1255;106513;-78
2024/04/08 10:53:44;;;;;;;5.70;2.40;;;;;;;24.32;56.69;99979.92;130815;1254;106919;-78
2024/04/08 10:56:49;;;;;;;2.70;2.10;;;;;;;24.39;57.21;99977.78;130888;1253;108641;-78
2024/04/08 10:59:54;;;;;;;2.80;2.40;;;;;;;24.46;56.93;99976.96;130791;1257;108475;-78
2024/04/08 13:29:44;;;;;;;3.60;2.40;;;;;;;26.23;50.27;99899.61;128042;1285;648692;-80
2024/04/08 13:32:49;;;;;;;3.00;2.20;;;;;;;26.31;49.51;99896.21;130031;1264;153483;-80
2024/04/08 13:35:54;;;;;;;4.10;2.60;;;;;;;26.29;49.44;99895.71;130281;1264;106765;-81
2024/04/08 13:39:00;;;;;;;2.80;2.10;;;;;;;26.27;49.52;99890.47;130310;1262;107415;-80
2024/04/08 13:42:06;;;;;;;4.90;2.30;;;;;;;26.27;49.62;99886.90;130189;1282;108357;-80
2024/04/08 13:45:11;;;;;;;3.10;2.20;;;;;;;26.24;49.31;99886.95;130011;1264;107760;-80
2024/04/08 13:48:16;;;;;;;4.70;2.30;;;;;;;26.23;48.96;99887.55;130253;1264;106767;-79
2024/04/08 13:51:22;;;;;;;3.90;2.20;;;;;;;26.18;48.58;99881.55;130536;1271;106013;-80
2024/04/08 13:54:29;;;;;;;3.50;2.40;;;;;;;26.15;48.50;99885.42;130475;1263;108746;-80
2024/04/08 13:57:36;;;;;;;6.30;2.40;;;;;;;26.14;48.58;99884.42;130384;1263;107287;-81
2024/04/08 14:00:41;;;;;;;4.30;2.40;;;;;;;26.13;48.57;99881.20;130393;1268;108746;-80
2024/04/08 14:03:47;;;;;;;5.70;2.20;;;;;;;26.12;48.47;99880.59;130335;1262;107861;-80
2024/04/08 14:06:53;;;;;;;5.40;2.20;;;;;;;26.11;48.59;99877.03;130373;1263;107840;-80
2024/04/08 14:09:58;;;;;;;4.70;2.50;;;;;;;26.10;48.32;99874.07;130441;1263;108640;-81
2024/04/08 14:13:04;;;;;;;3.40;2.50;;;;;;;26.08;48.01;99871.00;130638;1261;107050;-80
2024/04/08 14:16:12;;;;;;;3.70;2.40;;;;;;;26.05;47.79;99875.47;130550;1262;108507;-81
2024/04/08 14:19:17;;;;;;;4.20;2.90;;;;;;;26.05;47.83;99874.09;132351;1256;107806;-82
2024/04/08 14:22:22;;;;;;;4.20;2.40;;;;;;;26.02;47.86;99867.91;134552;1257;107825;-80
2024/04/08 14:25:29;;;;;;;4.90;2.70;;;;;;;26.01;47.75;99869.81;134635;1256;106246;-82
2024/04/08 14:28:34;;;;;;;5.90;2.50;;;;;;;25.99;47.67;99869.96;134598;1260;107709;-81
2024/04/08 14:31:40;;;;;;;4.10;2.60;;;;;;;25.99;47.40;99868.72;134415;1257;108301;-81
2024/04/08 14:34:45;;;;;;;3.90;2.50;;;;;;;25.99;47.33;99865.98;134569;1257;108273;-81
2024/04/08 14:37:51;;;;;;;5.00;2.20;;;;;;;25.98;47.36;99863.08;134611;1257;107068;-81
2024/04/08 14:40:56;;;;;;;6.20;2.50;;;;;;;25.99;47.44;99863.35;134591;1257;107914;-81
2024/04/08 14:44:02;;;;;;;3.80;2.20;;;;;;;26.00;47.33;99858.48;134610;1256;106659;-82
2024/04/08 14:47:07;;;;;;;3.50;2.20;;;;;;;26.00;47.19;99854.33;133519;1260;107170;-82
2024/04/08 14:50:13;;;;;;;4.40;2.30;;;;;;;25.99;47.26;99856.41;132590;1257;106997;-82
2024/04/08 14:53:18;;;;;;;3.50;2.00;;;;;;;25.98;47.11;99855.95;131347;1258;106638;-82
2024/04/08 14:56:23;;;;;;;4.90;2.10;;;;;;;25.96;46.90;99858.91;131317;1258;108533;-81
2024/04/08 14:59:28;;;;;;;3.40;2.00;;;;;;;25.92;46.77;99859.04;131240;1260;108644;-82
2024/04/08 15:02:33;;;;;;;2.90;1.70;;;;;;;25.88;46.82;99863.09;131271;1258;108216;-82
2024/04/08 15:05:40;;;;;;;5.00;2.20;;;;;;;25.83;46.61;99859.12;131476;1258;107724;-82
2024/04/08 15:08:45;;;;;;;3.80;2.50;;;;;;;25.80;46.57;99856.92;131270;1267;108738;-82
2024/04/08 15:11:51;;;;;;;6.80;2.20;;;;;;;25.77;46.77;99855.48;131461;1260;107159;-84
2024/04/08 15:14:56;;;;;;;3.90;2.00;;;;;;;25.75;46.83;99853.89;131492;1259;108177;-85
2024/04/08 15:18:01;;;;;;;5.40;2.10;;;;;;;25.69;46.78;99853.19;131706;1260;107154;-84
2024/04/08 15:21:06;;;;;;;3.90;2.20;;;;;;;25.63;46.55;99851.67;131280;1261;109189;-81
2024/04/08 15:24:13;;;;;;;4.70;2.40;;;;;;;25.57;46.51;99847.43;131078;1260;107699;-81
2024/04/08 15:27:19;;;;;;;5.70;2.60;;;;;;;25.49;46.58;99849.71;131164;1258;108463;-83
2024/04/08 15:30:24;;;;;;;4.30;2.60;;;;;;;25.42;46.79;99845.18;131040;1258;108602;-85
2024/04/08 15:33:29;;;;;;;3.10;2.10;;;;;;;25.35;46.79;99845.18;131254;1260;107557;-81
2024/04/08 15:36:34;;;;;;;4.80;2.40;;;;;;;25.29;46.82;99844.87;131214;1261;106828;-81
2024/04/08 15:39:40;;;;;;;4.40;2.20;;;;;;;25.23;46.78;99846.16;130914;1260;108559;-81
2024/04/08 15:42:45;;;;;;;2.50;2.00;;;;;;;25.16;46.66;99843.58;131261;1257;107805;-83
2024/04/08 15:45:57;;;;;;;4.70;2.20;;;;;;;25.09;46.89;99837.56;131286;1258;108616;-82
2024/04/08 15:49:02;;;;;;;4.70;2.30;;;;;;;25.02;46.92;99842.90;131385;1254;107677;-83
2024/04/08 15:52:09;;;;;;;3.60;2.00;;;;;;;24.96;46.97;99841.59;131396;1258;108565;-82
2024/04/08 15:55:16;;;;;;;5.00;2.40;;;;;;;24.88;47.04;99842.39;131923;1248;106859;-84
2024/04/08 15:58:24;;;;;;;4.00;2.10;;;;;;;24.81;47.14;99836.80;131950;1248;109053;-80
2024/04/08 16:01:29;;;;;;;3.20;2.10;;;;;;;24.73;47.16;99833.95;131561;1248;107294;-81
2024/04/08 16:04:35;;;;;;;3.10;2.10;;;;;;;24.66;47.31;99836.59;131648;1254;107511;-79
2024/04/08 16:07:41;;;;;;;3.30;2.10;;;;;;;24.57;47.31;99834.75;131843;1253;107426;-81
2024/04/08 16:10:46;;;;;;;4.30;2.30;;;;;;;24.48;47.28;99838.73;131792;1252;108429;-80
2024/04/08 16:13:52;;;;;;;3.40;2.00;;;;;;;24.40;47.35;99837.36;131866;1258;105828;-81
2024/04/08 16:16:58;;;;;;;4.30;2.40;;;;;;;24.32;47.28;99837.97;131601;1252;107786;-80
2024/04/08 16:20:05;;;;;;;3.80;2.50;;;;;;;24.23;47.38;99839.83;131857;1254;107425;-80
2024/04/08 16:23:11;;;;;;;4.20;2.70;;;;;;;24.14;47.59;99838.80;131705;1251;109136;-80
2024/04/08 16:26:16;;;;;;;5.10;2.90;;;;;;;24.04;47.90;99837.80;131693;1254;107920;-80
2024/04/08 16:29:22;;;;;;;6.80;2.80;;;;;;;23.95;47.90;99837.77;131985;1248;108445;-80
2024/04/08 16:32:27;;;;;;;7.70;3.80;;;;;;;23.84;48.12;99834.58;132610;1248;108495;-82
2024/04/08 16:35:33;;;;;;;5.90;3.00;;;;;;;23.73;48.36;99831.33;132864;1248;107703;-83
2024/04/08 16:38:38;;;;;;;4.40;2.90;;;;;;;23.62;48.56;99830.52;132000;1248;107604;-85
2024/04/08 16:41:45;;;;;;;7.00;2.90;;;;;;;23.50;48.65;99828.27;132022;1257;108533;-83
2024/04/08 16:44:53;;;;;;;5.50;2.30;;;;;;;23.38;49.09;99827.44;132474;1248;107577;-82
2024/04/08 16:47:58;;;;;;;3.80;2.70;;;;;;;23.26;49.72;99827.61;132019;1248;107218;-83
2024/04/08 16:51:03;;;;;;;5.20;2.70;;;;;;;23.11;50.10;99825.63;131975;1248;106901;-84
2024/04/08 16:54:09;;;;;;;4.60;2.80;;;;;;;22.97;50.40;99820.13;132762;1248;108927;-80
2024/04/08 16:57:14;;;;;;;4.40;2.90;;;;;;;22.82;50.72;99821.38;132715;1248;108723;-80
2024/04/08 17:00:20;;;;;;;4.90;3.00;;;;;;;22.66;51.14;99816.80;131989;1263;107395;-81
2024/04/08 17:03:27;;;;;;;6.10;4.00;;;;;;;22.51;51.45;99818.43;131731;1248;108335;-80
2024/04/08 17:06:38;;;;;;;8.10;3.80;;;;;;;22.37;51.67;99820.16;131605;1254;108054;-82